Neilburg, Canada
Current Conditions -  °F | °C
As of 9:00 PM on Thursday 27 Nov 2014 (Local Time) from CYLL Reporting Station
Light Snow Light Snow  
Wind Chill: -23°   Ceiling: 2000
Heat Index:   Visibility: 1.5mi
Dew Point: -4°   Wind: 21mph
Humidity: 85%   Direction: 60°ENE
Pressure: 29.94"   Gusts: NA
Location:  52.83°N, 109.63°W
Report Text: CYLL 280300Z 06018KT 1 1/2SM -SN DRSN OVC020 M18/M20 A2994 RMK SC8 VIA CYXE SLP197
Loading
Personal Weather Stations






























Interactive Weather Map New forecast layout! Learn more

10-Day Weather Forecast

Advertisements
Track Severe Weather on mobile